AKST,Max TemperatureF,Mean TemperatureF,Min TemperatureF,Max Dew PointF,MeanDew PointF,Min DewpointF,Max Humidity, Mean Humidity, Min Humidity, Max Sea Level PressureIn, Mean Sea Level PressureIn, Min Sea Level PressureIn, Max VisibilityMiles, Mean VisibilityMiles, Min VisibilityMiles, Max Wind SpeedMPH, Mean Wind SpeedMPH, Max Gust SpeedMPH,PrecipitationIn, CloudCover, Events, WindDirDegrees
2012-12-1,34,28,21,25,18,1,70,60,42,29.90,29.85,29.80,10,10,9,21,7,24,0.03,4,,15
2012-12-2,26,26,24,16,15,14,64,64,64,29.81,29.74,29.70,10,10,3,23,13,28,0.01,8,,19
2012-12-3,17,10,3,3,-2,-9,66,54,37,29.87,29.80,29.71,10,10,10,28,14,38,0.06,4,,39
2012-12-4,10,6,3,0,-5,-9,67,58,40,29.87,29.76,29.69,10,10,8,17,10,18,0.04,6,,47
2012-12-5,12,5,-2,1,-6,-18,85,60,44,29.79,29.73,29.68,10,9,2,15,9,,0.08,7,,49
2012-12-6,21,16,12,10,5,1,68,60,50,29.97,29.89,29.79,10,9,2,18,9,20,0.01,8,,311
2012-12-7,19,12,5,12,-2,-6,74,64,56,29.96,29.79,29.49,10,10,10,21,12,26,0.00,6,,47
2012-12-8,42,33,33,32,29,27,75,70,66,29.48,28.96,28.75,10,10,6,40,21,53,0.00,5,,111
2012-12-9,35,,35,32,32,32,87,87,87,29.53,29.21,28.80,10,10,10,25,18,31,0.03,7,,198
2012-12-10,33,,33,25,25,25,70,70,70,30.18,29.85,29.54,10,8,2,26,17,32,0.00,8,,258
2012-12-11,35,,35,25,25,25,65,65,65,30.17,29.83,29.50,10,10,10,30,10,33,0.00,8,,146
2012-12-12,37,36,35,34,32,30,87,81,75,29.68,29.60,29.50,10,9,4,30,17,37,0.00,8,,225
2012-12-13,,,,,,,,,,29.67,29.52,29.36,10,9,4,24,11,30,0.00,6,,202
2012-12-14,35,30,26,27,22,14,86,70,50,29.50,29.36,29.27,10,5,0,29,11,43,0.00,8,,225
2012-12-15,24,22,19,12,10,9,68,59,45,29.75,29.64,29.51,10,10,8,28,20,34,0.35,8,,293
2012-12-16,30,29,28,21,20,19,74,70,69,29.90,29.82,29.75,10,9,1,25,13,32,0.12,7,,262
2012-12-17,37,34,30,28,26,18,81,68,55,29.86,29.41,28.87,10,10,3,41,16,53,0.08,4,,146
2012-12-18,37,24,12,28,10,-4,87,67,29,30.06,29.64,28.90,10,6,0,47,30,56,0.01,8,,327
2012-12-19,15,12,10,10,2,-6,92,62,33,30.41,30.28,30.06,10,10,8,38,28,47,0.20,5,,340
2012-12-20,15,9,3,5,-7,-15,85,54,35,30.39,30.32,30.16,10,10,10,22,11,29,0.91,0,,48
2012-12-21,8,0,-9,3,-13,-29,100,62,25,30.16,30.02,29.93,10,10,10,16,12,,0.02,0,,35
2012-12-22,17,4,-8,16,-8,-29,100,65,27,29.94,29.75,29.61,10,8,0,18,6,,0.01,4,,57
2012-12-23,10,4,0,7,-4,-20,100,68,39,29.64,29.51,29.32,10,7,1,8,5,,0.00,8,,74
2012-12-24,21,16,10,21,12,-4,100,82,52,29.43,29.28,29.19,10,5,1,23,6,26,0.00,8,,228
2012-12-25,37,22,8,28,15,-9,100,66,44,29.46,29.38,29.13,10,10,10,22,10,30,0.01,3,,98
2012-12-26,42,32,23,30,28,27,81,66,55,29.12,28.77,28.62,10,10,3,41,17,52,0.01,8,,75
2012-12-27,35,28,21,30,25,16,93,81,65,29.18,29.04,28.77,10,9,1,16,8,21,0.00,7,,163
2012-12-28,39,31,23,30,28,16,93,70,61,29.18,28.94,28.42,10,10,4,46,20,55,0.28,4,,120
2012-12-29,37,34,30,30,27,25,87,78,52,29.18,28.90,28.48,10,10,2,37,20,44,0.00,5,,77
2012-12-30,34,33,30,30,28,27,87,81,72,29.09,28.62,28.38,10,8,2,30,16,36,0.01,8,,213
2012-12-31,39,32,26,32,27,21,93,77,56,29.25,29.05,28.73,10,9,2,30,13,33,0.00,5,,69